createdAt,value
2022-10-29T00:01:41.874Z,31.48
2022-10-29T00:04:14.091Z,31.50
2022-10-29T00:06:40.880Z,28.70
2022-10-29T00:09:11.473Z,26.98
2022-10-29T00:11:52.237Z,25.10
2022-10-29T00:14:31.552Z,25.15
2022-10-29T00:17:22.103Z,23.65
2022-10-29T00:19:49.236Z,23.92
2022-10-29T00:22:16.031Z,21.58
2022-10-29T00:24:42.543Z,22.75
2022-10-29T00:27:12.569Z,21.77
2022-10-29T00:29:39.464Z,21.37
2022-10-29T00:32:06.292Z,18.38
2022-10-29T00:34:34.459Z,15.85
2022-10-29T00:37:01.098Z,15.75
2022-10-29T00:39:30.169Z,15.25
2022-10-29T00:41:57.669Z,13.95
2022-10-29T00:44:31.620Z,13.35
2022-10-29T00:47:08.575Z,12.13
2022-10-29T00:49:35.475Z,11.88
2022-10-29T00:52:03.320Z,11.98
2022-10-29T00:54:30.896Z,10.63
2022-10-29T00:57:09.049Z,9.60
2022-10-29T00:59:35.836Z,10.38
2022-10-29T01:02:04.714Z,8.13
2022-10-29T01:04:33.810Z,6.82
2022-10-29T01:07:00.419Z,6.13
2022-10-29T01:09:27.024Z,5.03
2022-10-29T01:11:59.642Z,5.40
2022-10-29T01:14:49.580Z,5.47
2022-10-29T01:17:23.754Z,4.13
2022-10-29T01:19:56.509Z,4.03
2022-10-29T01:22:40.498Z,4.82
2022-10-29T01:25:12.333Z,3.13
2022-10-29T01:27:38.981Z,3.42
2022-10-29T01:30:05.495Z,3.60
2022-10-29T01:32:46.302Z,4.03
2022-10-29T01:35:15.834Z,3.22
2022-10-29T01:37:57.310Z,4.05
2022-10-29T01:40:30.066Z,5.18
2022-10-29T01:43:02.912Z,3.72
2022-10-29T01:45:31.675Z,3.78
2022-10-29T01:48:01.467Z,4.45
2022-10-29T01:50:28.620Z,3.20
2022-10-29T01:52:57.941Z,4.57
2022-10-29T01:55:30.193Z,4.63
2022-10-29T01:57:59.376Z,4.30
2022-10-29T02:00:29.002Z,3.15
2022-10-29T02:03:14.382Z,4.63
2022-10-29T02:05:52.738Z,4.20
2022-10-29T02:08:38.270Z,5.90
2022-10-29T02:11:11.928Z,2.92
2022-10-29T02:13:41.445Z,4.55
2022-10-29T02:16:08.631Z,3.85
2022-10-29T02:18:49.112Z,4.47
2022-10-29T02:21:21.003Z,3.25
2022-10-29T02:23:47.917Z,3.80
2022-10-29T02:26:14.691Z,4.10
2022-10-29T02:28:41.327Z,4.90
2022-10-29T02:31:08.859Z,4.70
2022-10-29T02:33:41.071Z,3.70
2022-10-29T02:36:10.769Z,5.18
2022-10-29T02:38:39.479Z,4.68
2022-10-29T02:41:06.222Z,3.60
2022-10-29T02:43:32.772Z,3.20
2022-10-29T02:46:19.649Z,5.43
2022-10-29T02:48:46.355Z,4.50
2022-10-29T02:51:13.140Z,4.88
2022-10-29T02:53:39.821Z,3.70
2022-10-29T02:56:06.664Z,3.17
2022-10-29T02:58:33.399Z,2.95
2022-10-29T03:00:59.948Z,3.70
2022-10-29T03:03:26.531Z,2.80
2022-10-29T03:05:56.364Z,3.45
2022-10-29T03:08:22.939Z,6.00
2022-10-29T03:10:49.625Z,4.47
2022-10-29T03:13:16.463Z,4.82
2022-10-29T03:15:46.117Z,3.17
2022-10-29T03:18:12.777Z,3.67
2022-10-29T03:20:39.467Z,3.15
2022-10-29T03:23:09.215Z,3.25
2022-10-29T03:25:35.679Z,4.30
2022-10-29T03:28:02.307Z,3.78
2022-10-29T03:30:28.917Z,3.50
2022-10-29T03:32:58.478Z,3.53
2022-10-29T03:35:25.344Z,3.90
2022-10-29T03:37:52.316Z,3.38
2022-10-29T03:40:19.465Z,4.55
2022-10-29T03:42:46.154Z,3.38
2022-10-29T03:45:12.701Z,3.63
2022-10-29T03:47:39.435Z,7.55
2022-10-29T03:50:06.176Z,3.50
2022-10-29T03:52:32.787Z,2.90
2022-10-29T03:54:59.268Z,3.75
2022-10-29T03:57:25.681Z,3.65
2022-10-29T03:59:53.161Z,2.80
2022-10-29T04:02:20.181Z,3.65
2022-10-29T04:04:46.924Z,5.25
2022-10-29T04:07:13.634Z,3.42
2022-10-29T04:09:40.163Z,3.03
2022-10-29T04:12:06.978Z,2.78
2022-10-29T04:14:33.544Z,3.60
2022-10-29T04:17:00.370Z,3.15
2022-10-29T04:19:26.893Z,5.15
2022-10-29T04:30:26.306Z,3.13
2022-10-29T04:32:56.267Z,2.83
2022-10-29T04:35:23.073Z,3.55
2022-10-29T04:37:49.520Z,2.90
2022-10-29T04:40:15.979Z,2.97
2022-10-29T04:42:42.525Z,3.28
2022-10-29T04:45:09.215Z,3.88
2022-10-29T04:47:38.070Z,2.38
2022-10-29T04:50:04.950Z,2.70
2022-10-29T04:52:31.460Z,3.35
2022-10-29T04:54:58.020Z,6.10
2022-10-29T04:57:24.503Z,3.05
2022-10-29T04:59:51.115Z,3.13
2022-10-29T05:02:17.602Z,3.80
2022-10-29T05:04:44.057Z,3.33
2022-10-29T05:07:10.608Z,2.70
2022-10-29T05:09:37.197Z,2.97
2022-10-29T05:12:03.966Z,3.53
2022-10-29T05:14:30.627Z,2.28
2022-10-29T05:16:57.223Z,2.40
2022-10-29T05:19:23.796Z,3.95
2022-10-29T05:21:50.310Z,2.60
2022-10-29T05:24:16.977Z,3.45
2022-10-29T05:26:44.035Z,2.42
2022-10-29T05:29:13.847Z,2.58
2022-10-29T05:31:40.581Z,2.13
2022-10-29T05:34:07.162Z,2.22
2022-10-29T05:36:33.733Z,3.10
2022-10-29T05:39:02.789Z,3.15
2022-10-29T05:41:29.281Z,1.92
2022-10-29T05:43:55.823Z,2.95
2022-10-29T05:46:25.395Z,2.60
2022-10-29T05:48:51.932Z,2.80
2022-10-29T05:51:18.556Z,1.88
2022-10-29T05:53:45.093Z,1.80
2022-10-29T05:56:11.646Z,3.13
2022-10-29T05:58:38.199Z,2.10
2022-10-29T06:01:08.384Z,2.40
2022-10-29T06:03:38.535Z,4.78
2022-10-29T06:06:05.306Z,3.97
2022-10-29T06:08:31.873Z,2.28
2022-10-29T06:11:01.059Z,3.08
2022-10-29T06:13:27.684Z,1.80
2022-10-29T06:15:56.584Z,3.38
2022-10-29T06:18:23.133Z,4.18
2022-10-29T06:20:49.656Z,2.17
2022-10-29T06:23:16.138Z,3.67
2022-10-29T06:25:42.718Z,3.10
2022-10-29T06:28:12.253Z,3.15
2022-10-29T06:30:38.923Z,4.15
2022-10-29T06:33:05.645Z,2.47
2022-10-29T06:35:32.277Z,3.08
2022-10-29T06:38:04.029Z,3.08
2022-10-29T06:40:32.791Z,2.65
2022-10-29T06:43:05.004Z,5.90
2022-10-29T06:45:32.457Z,2.88
2022-10-29T06:48:00.920Z,2.72
2022-10-29T06:50:27.825Z,4.43
2022-10-29T06:52:58.455Z,2.53
2022-10-29T06:57:57.859Z,3.53
2022-10-29T07:00:24.993Z,3.47
2022-10-29T07:02:51.573Z,2.65
2022-10-29T07:05:18.245Z,3.00
2022-10-29T07:07:44.875Z,3.15
2022-10-29T07:10:11.387Z,2.47
2022-10-29T07:12:41.838Z,2.53
2022-10-29T07:15:09.097Z,3.50
2022-10-29T07:17:35.757Z,2.10
2022-10-29T07:20:02.962Z,3.60
2022-10-29T07:22:34.627Z,2.88
2022-10-29T07:25:01.573Z,2.03
2022-10-29T07:27:28.535Z,2.92
2022-10-29T07:29:55.117Z,2.63
2022-10-29T07:32:26.664Z,2.40
2022-10-29T07:34:53.175Z,2.13
2022-10-29T07:37:20.835Z,3.22
2022-10-29T07:39:47.447Z,2.50
2022-10-29T07:42:13.950Z,2.60
2022-10-29T07:44:40.595Z,2.20
2022-10-29T07:47:07.341Z,2.42
2022-10-29T07:49:33.844Z,3.45
2022-10-29T07:52:00.347Z,2.03
2022-10-29T07:54:26.897Z,2.22
2022-10-29T07:56:53.483Z,2.55
2022-10-29T07:59:20.529Z,2.83
2022-10-29T08:01:47.125Z,3.67
2022-10-29T08:04:13.972Z,1.70
2022-10-29T08:06:40.698Z,2.10
2022-10-29T08:09:07.140Z,3.05
2022-10-29T08:11:33.927Z,2.15
2022-10-29T08:14:00.549Z,2.50
2022-10-29T08:16:27.125Z,2.08
2022-10-29T08:18:53.590Z,1.83
2022-10-29T08:21:20.006Z,2.15
2022-10-29T08:23:46.460Z,1.80
2022-10-29T08:26:13.046Z,1.73
2022-10-29T08:28:39.522Z,2.70
2022-10-29T08:31:05.946Z,2.60
2022-10-29T08:33:32.422Z,1.88
2022-10-29T08:35:58.824Z,1.80
2022-10-29T08:38:25.321Z,2.45
2022-10-29T08:40:54.822Z,2.55
2022-10-29T08:43:24.378Z,3.17
2022-10-29T08:45:52.527Z,2.63
2022-10-29T08:48:28.509Z,2.17
2022-10-29T08:51:15.625Z,3.70
2022-10-29T08:53:47.624Z,2.25
2022-10-29T08:56:25.244Z,2.25
2022-10-29T08:59:01.408Z,1.90
2022-10-29T09:01:28.137Z,2.42
2022-10-29T09:03:54.697Z,3.13
2022-10-29T09:06:34.655Z,2.30
2022-10-29T09:09:19.830Z,3.22
2022-10-29T09:11:46.297Z,2.17
2022-10-29T09:14:31.578Z,2.90
2022-10-29T09:17:20.966Z,2.90
2022-10-29T09:19:57.528Z,3.00
2022-10-29T09:22:32.610Z,2.88
2022-10-29T09:25:28.600Z,2.97
2022-10-29T09:28:18.440Z,3.33
2022-10-29T09:30:59.356Z,3.63
2022-10-29T09:33:26.280Z,2.10
2022-10-29T09:35:57.357Z,4.82
2022-10-29T09:38:29.479Z,2.42
2022-10-29T09:40:57.589Z,2.30
2022-10-29T09:44:07.170Z,2.50
2022-10-29T09:46:58.232Z,2.67
2022-10-29T09:52:11.338Z,2.88
2022-10-29T09:54:37.877Z,2.85
2022-10-29T09:57:04.746Z,3.15
2022-10-29T09:59:46.556Z,4.28
2022-10-29T10:02:22.257Z,2.38
2022-10-29T10:04:51.182Z,4.03
2022-10-29T10:07:19.599Z,3.45
2022-10-29T10:10:00.075Z,3.33
2022-10-29T10:12:43.965Z,3.40
2022-10-29T10:15:16.496Z,3.22
2022-10-29T10:18:02.258Z,2.85
2022-10-29T10:20:30.928Z,3.95
2022-10-29T10:22:59.853Z,2.80
2022-10-29T10:25:32.784Z,3.78
2022-10-29T10:28:03.222Z,2.53
2022-10-29T10:30:29.600Z,2.95
2022-10-29T10:33:10.471Z,2.63
2022-10-29T10:35:37.649Z,3.10
2022-10-29T10:38:09.927Z,2.67
2022-10-29T10:40:37.393Z,3.28
2022-10-29T10:43:06.942Z,2.75
2022-10-29T10:45:37.591Z,2.30
2022-10-29T10:48:08.354Z,2.65
2022-10-29T10:50:35.279Z,3.58
2022-10-29T10:53:06.986Z,3.03
2022-10-29T10:55:35.131Z,2.30
2022-10-29T10:58:06.053Z,2.85
2022-10-29T11:03:02.429Z,2.38
2022-10-29T11:05:40.363Z,4.17
2022-10-29T11:08:09.557Z,4.30
2022-10-29T11:10:56.089Z,3.47
2022-10-29T11:13:24.581Z,3.63
2022-10-29T11:15:55.359Z,2.58
2022-10-29T11:18:35.282Z,3.15
2022-10-29T11:21:06.711Z,2.50
2022-10-29T11:23:43.685Z,2.78
2022-10-29T11:26:13.199Z,2.70
2022-10-29T11:28:43.460Z,2.38
2022-10-29T11:31:28.625Z,2.13
2022-10-29T11:34:04.544Z,2.90
2022-10-29T11:36:33.433Z,2.40
2022-10-29T11:39:10.725Z,2.67
2022-10-29T11:41:57.488Z,3.67
2022-10-29T11:44:24.239Z,2.55
2022-10-29T11:47:09.390Z,2.85
2022-10-29T11:49:54.018Z,2.47
2022-10-29T11:52:35.652Z,3.15
2022-10-29T11:55:21.217Z,4.40
2022-10-29T11:58:07.066Z,3.95
2022-10-29T12:00:52.262Z,2.85
2022-10-29T12:03:25.208Z,2.85
2022-10-29T12:06:27.357Z,2.75
2022-10-29T12:09:25.569Z,2.85
2022-10-29T12:12:01.376Z,2.50
2022-10-29T12:14:33.362Z,2.80
2022-10-29T12:17:03.714Z,2.85
2022-10-29T12:19:33.196Z,2.80
2022-10-29T12:22:05.624Z,2.65
2022-10-29T12:24:39.698Z,3.55
2022-10-29T12:27:14.495Z,4.32
2022-10-29T12:29:50.254Z,2.80
2022-10-29T12:32:23.105Z,2.47
2022-10-29T12:34:54.299Z,2.38
2022-10-29T12:37:35.788Z,2.70
2022-10-29T12:40:12.863Z,2.97
2022-10-29T12:42:40.017Z,3.50
2022-10-29T12:45:16.379Z,3.47
2022-10-29T12:47:48.725Z,2.75
2022-10-29T12:50:15.121Z,2.78
2022-10-29T12:52:50.037Z,3.05
2022-10-29T12:55:16.704Z,3.92
2022-10-29T12:57:46.090Z,3.25
2022-10-29T13:00:32.735Z,4.18
2022-10-29T13:02:59.438Z,2.55
2022-10-29T13:05:36.655Z,3.22
2022-10-29T13:08:03.023Z,2.70
2022-10-29T13:10:37.997Z,2.67
2022-10-29T13:13:07.317Z,3.20
2022-10-29T13:15:33.732Z,3.50
2022-10-29T13:18:17.359Z,2.88
2022-10-29T13:20:47.536Z,2.97
2022-10-29T13:23:37.807Z,4.10
2022-10-29T13:26:05.214Z,2.45
2022-10-29T13:28:37.841Z,3.28
2022-10-29T13:31:04.173Z,3.22
2022-10-29T13:33:36.375Z,2.80
2022-10-29T13:36:25.638Z,3.85
2022-10-29T13:39:06.372Z,2.63
2022-10-29T13:41:40.357Z,2.80
2022-10-29T13:44:24.185Z,3.60
2022-10-29T13:46:54.219Z,2.65
2022-10-29T13:49:23.365Z,3.33
2022-10-29T13:52:15.835Z,2.65
2022-10-29T13:54:51.346Z,3.78
2022-10-29T13:57:17.660Z,3.20
2022-10-29T14:00:04.923Z,3.97
2022-10-29T14:02:34.404Z,2.80
2022-10-29T14:05:15.987Z,4.30
2022-10-29T14:08:00.900Z,4.65
2022-10-29T14:10:39.467Z,3.28
2022-10-29T14:13:29.752Z,4.00
2022-10-29T14:16:02.650Z,3.17
2022-10-29T14:18:30.904Z,3.22
2022-10-29T14:20:58.060Z,3.13
2022-10-29T14:23:25.171Z,4.35
2022-10-29T14:25:52.301Z,3.88
2022-10-29T14:28:18.751Z,4.50
2022-10-29T14:30:48.650Z,3.67
2022-10-29T14:33:25.651Z,4.28
2022-10-29T14:35:53.273Z,3.03
2022-10-29T14:38:21.415Z,8.00
2022-10-29T14:40:47.959Z,3.88
2022-10-29T14:43:22.550Z,4.95
2022-10-29T14:45:48.969Z,3.58
2022-10-29T14:48:16.562Z,4.45
2022-10-29T14:51:01.006Z,3.10
2022-10-29T14:53:30.172Z,3.58
2022-10-29T14:55:57.410Z,2.65
2022-10-29T14:58:27.314Z,5.47
2022-10-29T15:00:55.522Z,3.88
2022-10-29T15:03:23.484Z,3.65
2022-10-29T15:05:50.447Z,5.57
2022-10-29T15:08:19.233Z,4.03
2022-10-29T15:10:48.665Z,4.25
2022-10-29T15:13:27.132Z,2.70
2022-10-29T15:15:55.344Z,3.17
2022-10-29T15:18:22.683Z,2.67
2022-10-29T15:20:49.244Z,3.38
2022-10-29T15:23:20.850Z,3.78
2022-10-29T15:25:48.582Z,2.90
2022-10-29T15:28:21.779Z,2.67
2022-10-29T15:30:48.187Z,3.53
2022-10-29T15:33:19.662Z,2.95
2022-10-29T15:35:49.303Z,2.90
2022-10-29T15:38:35.671Z,3.40
2022-10-29T15:41:08.405Z,3.50
2022-10-29T15:43:35.871Z,7.53
2022-10-29T15:46:03.716Z,3.05
2022-10-29T15:48:36.345Z,3.15
2022-10-29T15:51:04.165Z,3.28
2022-10-29T15:53:30.500Z,2.60
2022-10-29T15:55:58.193Z,3.42
2022-10-29T15:58:24.536Z,4.93
2022-10-29T16:00:51.282Z,4.35
2022-10-29T16:03:18.759Z,3.22
2022-10-29T16:05:54.051Z,2.40
2022-10-29T16:08:23.588Z,3.95
2022-10-29T16:10:50.159Z,2.95
2022-10-29T16:13:17.634Z,3.90
2022-10-29T16:15:44.397Z,2.65
2022-10-29T16:18:10.960Z,3.47
2022-10-29T16:20:37.300Z,3.70
2022-10-29T16:23:03.733Z,3.85
2022-10-29T16:25:32.469Z,3.90
2022-10-29T16:27:59.400Z,5.03
2022-10-29T16:30:26.083Z,3.00
2022-10-29T16:32:52.813Z,2.65
2022-10-29T16:35:20.476Z,3.50
2022-10-29T16:37:47.028Z,2.95
2022-10-29T16:40:13.564Z,2.97
2022-10-29T16:42:40.276Z,3.60
2022-10-29T16:45:10.045Z,5.15
2022-10-29T16:47:36.586Z,3.70
2022-10-29T16:50:03.074Z,3.38
2022-10-29T16:52:29.835Z,3.33
2022-10-29T16:54:56.523Z,3.13
2022-10-29T16:57:23.767Z,2.63
2022-10-29T16:59:50.310Z,3.72
2022-10-29T17:02:16.666Z,4.05
2022-10-29T17:04:43.082Z,4.68
2022-10-29T17:07:09.480Z,3.55
2022-10-29T17:09:37.010Z,3.05
2022-10-29T17:12:03.581Z,2.95
2022-10-29T17:14:29.915Z,4.82
2022-10-29T17:16:57.321Z,3.35
2022-10-29T17:19:23.815Z,5.28
2022-10-29T17:21:50.170Z,3.28
2022-10-29T17:24:19.767Z,4.53
2022-10-29T17:26:46.175Z,3.13
2022-10-29T17:29:12.607Z,3.58
2022-10-29T17:31:39.029Z,2.50
2022-10-29T17:34:05.385Z,3.92
2022-10-29T17:36:31.778Z,3.10
2022-10-29T17:38:58.171Z,3.20
2022-10-29T17:41:24.715Z,3.40
2022-10-29T17:43:51.073Z,3.25
2022-10-29T17:46:18.131Z,3.85
2022-10-29T17:48:44.506Z,2.85
2022-10-29T17:51:11.059Z,3.55
2022-10-29T17:53:37.503Z,3.10
2022-10-29T17:56:03.981Z,3.60
2022-10-29T17:58:31.174Z,3.85
2022-10-29T18:01:07.042Z,3.17
2022-10-29T18:03:33.653Z,3.20
2022-10-29T18:06:00.976Z,2.75
2022-10-29T18:08:27.822Z,3.38
2022-10-29T18:11:00.881Z,3.70
2022-10-29T18:13:30.222Z,4.13
2022-10-29T18:15:56.782Z,5.03
2022-10-29T18:18:23.196Z,5.18
2022-10-29T18:20:49.593Z,5.15
2022-10-29T18:23:16.031Z,5.30
2022-10-29T18:25:42.451Z,3.53
2022-10-29T18:28:08.879Z,4.80
2022-10-29T18:30:35.246Z,3.38
2022-10-29T18:33:01.943Z,3.60
2022-10-29T18:35:28.668Z,3.17
2022-10-29T18:37:55.385Z,3.63
2022-10-29T18:40:22.069Z,4.25
2022-10-29T18:42:48.648Z,5.00
2022-10-29T18:45:15.093Z,3.28
2022-10-29T18:47:41.459Z,3.33
2022-10-29T18:50:08.034Z,4.60
2022-10-29T18:52:34.447Z,4.13
2022-10-29T18:55:00.950Z,2.78
2022-10-29T18:57:30.766Z,3.30
2022-10-29T18:59:57.357Z,4.43
2022-10-29T19:02:24.141Z,5.10
2022-10-29T19:04:50.708Z,4.88
2022-10-29T19:07:17.097Z,3.78
2022-10-29T19:09:43.642Z,2.95
2022-10-29T19:12:12.890Z,3.15
2022-10-29T19:14:42.442Z,7.85
2022-10-29T19:17:08.965Z,4.65
2022-10-29T19:19:35.478Z,3.85
2022-10-29T19:22:01.886Z,3.33
2022-10-29T19:24:28.257Z,4.82
2022-10-29T19:26:54.731Z,4.43
2022-10-29T19:29:21.321Z,4.35
2022-10-29T19:31:50.596Z,5.60
2022-10-29T19:34:16.984Z,4.28
2022-10-29T19:36:43.391Z,4.63
2022-10-29T19:39:09.790Z,4.15
2022-10-29T19:41:36.455Z,4.65
2022-10-29T19:44:03.340Z,4.18
2022-10-29T19:46:30.060Z,4.05
2022-10-29T19:48:57.625Z,3.72
2022-10-29T19:51:24.160Z,3.30
2022-10-29T19:53:51.686Z,5.78
2022-10-29T19:56:18.813Z,4.50
2022-10-29T19:58:45.716Z,4.00
2022-10-29T20:01:14.831Z,3.75
2022-10-29T20:03:41.952Z,4.15
2022-10-29T20:06:09.463Z,4.53
2022-10-29T20:08:36.593Z,4.00
2022-10-29T20:11:02.983Z,5.97
2022-10-29T20:13:29.343Z,3.88
2022-10-29T20:15:55.904Z,4.80
2022-10-29T20:18:22.344Z,4.85
2022-10-29T20:20:55.606Z,4.18
2022-10-29T20:23:22.806Z,5.00
2022-10-29T20:25:49.197Z,4.70
2022-10-29T20:28:15.730Z,4.50
2022-10-29T20:30:42.153Z,4.47
2022-10-29T20:33:08.588Z,3.75
2022-10-29T20:35:35.196Z,2.97
2022-10-29T20:38:01.861Z,6.90
2022-10-29T20:40:28.460Z,3.95
2022-10-29T20:42:54.969Z,3.83
2022-10-29T20:45:21.432Z,4.20
2022-10-29T20:47:47.835Z,4.18
2022-10-29T20:50:14.254Z,3.67
2022-10-29T20:52:45.704Z,4.40
2022-10-29T20:55:14.813Z,5.07
2022-10-29T20:57:41.162Z,5.40
2022-10-29T21:00:07.819Z,3.53
2022-10-29T21:02:34.275Z,5.50
2022-10-29T21:05:00.702Z,3.28
2022-10-29T21:07:27.118Z,3.97
2022-10-29T21:09:53.511Z,4.50
2022-10-29T21:12:19.897Z,3.55
2022-10-29T21:14:46.310Z,3.97
2022-10-29T21:17:12.654Z,4.05
2022-10-29T21:19:39.236Z,3.88
2022-10-29T21:22:05.964Z,3.63
2022-10-29T21:24:32.434Z,3.60
2022-10-29T21:26:58.805Z,3.42
2022-10-29T21:29:25.199Z,4.07
2022-10-29T21:31:51.647Z,3.83
2022-10-29T21:34:18.054Z,3.33
2022-10-29T21:36:44.507Z,3.05
2022-10-29T21:39:10.929Z,3.08
2022-10-29T21:41:37.313Z,3.80
2022-10-29T21:44:03.739Z,3.67
2022-10-29T21:46:33.190Z,4.63
2022-10-29T21:48:59.811Z,2.92
2022-10-29T21:51:26.233Z,2.75
2022-10-29T21:53:52.646Z,3.75
2022-10-29T21:56:19.630Z,4.22
2022-10-29T21:58:46.057Z,3.58
2022-10-29T22:01:13.678Z,3.92
2022-10-29T22:03:43.013Z,2.95
2022-10-29T22:06:16.896Z,3.55
2022-10-29T22:08:43.627Z,2.78
2022-10-29T22:11:10.686Z,3.47
2022-10-29T22:13:37.076Z,3.15
2022-10-29T22:16:03.986Z,2.30
2022-10-29T22:18:30.885Z,3.72
2022-10-29T22:21:03.347Z,4.53
2022-10-29T22:23:29.797Z,4.55
2022-10-29T22:25:56.211Z,3.22
2022-10-29T22:28:22.707Z,3.03
2022-10-29T22:30:49.111Z,3.33
2022-10-29T22:33:15.743Z,2.67
2022-10-29T22:35:42.123Z,3.13
2022-10-29T22:38:08.538Z,4.32
2022-10-29T22:40:40.432Z,3.45
2022-10-29T22:43:06.802Z,3.15
2022-10-29T22:45:33.198Z,3.00
2022-10-29T22:47:59.631Z,3.58
2022-10-29T22:50:26.017Z,2.88
2022-10-29T22:52:52.408Z,3.67
2022-10-29T22:55:19.411Z,3.53
2022-10-29T22:57:45.833Z,3.00
2022-10-29T23:00:12.491Z,3.28
2022-10-29T23:02:39.172Z,3.35
2022-10-29T23:05:05.786Z,3.95
2022-10-29T23:09:58.459Z,4.32
2022-10-29T23:12:24.824Z,3.13
2022-10-29T23:14:51.316Z,2.95
2022-10-29T23:17:20.626Z,3.97
2022-10-29T23:19:47.008Z,3.72
2022-10-29T23:22:16.388Z,3.10
2022-10-29T23:24:42.811Z,3.78
2022-10-29T23:27:09.189Z,2.70
2022-10-29T23:29:35.559Z,4.97
2022-10-29T23:32:01.989Z,3.08
2022-10-29T23:34:28.362Z,2.88
2022-10-29T23:36:54.778Z,3.67
2022-10-29T23:39:21.175Z,2.83
2022-10-29T23:41:47.570Z,5.50
2022-10-29T23:44:13.893Z,3.50
2022-10-29T23:46:40.250Z,2.72
2022-10-29T23:49:06.566Z,2.78
2022-10-29T23:54:01.783Z,2.60
2022-10-29T23:56:28.248Z,3.78
2022-10-29T23:58:54.639Z,3.72
